Alder Grove, Washington
Current Conditions -  °F | °C
As of 5:41 AM on Friday 24 Oct 2014 (Local Time) from KSHN Reporting Station
Haze Haze  
Wind Chill: 46°   Ceiling: Unl
Heat Index: 46°   Visibility: 6mi
Dew Point: 45°   Wind: 3mph
Humidity: 96%   Direction: 10°N
Pressure: 30"   Gusts: NA
Location:  47.555°N, 123.746°W
Report Text: KSHN 241241Z AUTO 01003KT 6SM BR FEW002 08/07 A3000 RMK AO2 T00780072 TSNO
Loading
Personal Weather Stations






























Interactive Weather Map
Tropical Storm Tracking
New forecast layout! Learn more

10-Day Weather Forecast

Advertisements
Track Severe Weather on mobile